Startpagina
METAR-TAF:

METAR-TAF

Vliegvelden :

Liege Airport

Luik, België

breedte: 50-39N, lengte: 005-27E, hoogte: 186 m

Actueel weer

Dit bericht is 16 minuten geleden gemaakt, om 10:20 UTC
Wind 17 kt uit het zuidwesten
Temperatuur 24°C
Vochtigheid 57%
Druk 1018 hPa
Zicht 10 km of meer
Verspreide wolken op 3600 ft

METAR: EBLG 191020Z 22017KT 9999 SCT036 24/15 Q1018 NOSIG

Tijdstip: 12:36 (10:36 UTC)

Verwachting

Dit bericht is 5 uur en het 26 minuten geleden gemaakt, om 05:10 UTC
Verwachting geldig van 19 om 06 UTC tot 20 om 12 UTC
Wind 6 kt uit het zuidzuidwesten
Zicht 10 km of meer
geen wolken onder 1500 m en geen cumulonimbus
Tijdelijke
van 19 om 11 UTC tot 19 om 16 UTC
Wind 15 kt uit het zuidwesten met uitschieters tot 25 kt

TAF: EBLG 190510Z 1906/2012 21006KT CAVOK TEMPO 1911/1916 23015G25KT

Waarnemingen en weersverwachtingen van meer dan 4000 vliegvelden (METAR en TAF).

De beschikbare stations zijn de gele en rode punten op de kaart.

Ga met uw muis naar het station om de naam te zien.

Klik dan om waarnemingen en weersverwachtingen te zien.

kaart wijzigen: klik op de groene knoppen met een zwart kruis om in te zoomen, op de groene knop met een streepje om uit te zoomen of op de groene pijlen voor aangrenzende kaarten.


METAR-TAF: